Time;durP1;ratioP1;P1;durP2;ratioP2;P2;SDS_P1;SDS_P2;PMS_P1;PMS_P2;Temp;Humidity;BMP_temperature;BMP_pressure;BME280_temperature;BME280_humidity;BME280_pressure;Samples;Min_cycle;Max_cycle;Signal;HPM_P1;HPM_P2
2024/03/14 00:00:38;;;;;;;6.25;5.20;;;;;;;;;;4973775;28;20484;-82
2024/03/14 00:03:05;;;;;;;8.45;4.50;;;;;;;;;;4974406;28;20054;-82
2024/03/14 00:05:32;;;;;;;7.60;4.85;;;;;;;;;;4976898;28;20059;-82
2024/03/14 00:08:00;;;;;;;6.60;5.03;;;;;;;;;;4957559;28;20059;-82
2024/03/14 00:10:27;;;;;;;8.43;5.20;;;;;;;;;;4973061;28;20057;-81
2024/03/14 00:12:54;;;;;;;6.63;5.55;;;;;;;;;;4976903;28;20043;-81
2024/03/14 00:15:20;;;;;;;6.35;5.35;;;;;;;;;;4960792;28;20101;-83
2024/03/14 00:17:47;;;;;;;7.78;5.22;;;;;;;;;;4966926;28;20109;-83
2024/03/14 00:20:14;;;;;;;7.72;5.97;;;;;;;;;;4997818;28;20050;-83
2024/03/14 00:22:44;;;;;;;6.03;5.07;;;;;;;;;;4963978;28;20087;-82
2024/03/14 00:25:11;;;;;;;11.77;5.55;;;;;;;;;;4980236;28;20061;-82
2024/03/14 00:27:38;;;;;;;6.22;5.63;;;;;;;;;;4981781;28;20094;-82
2024/03/14 00:30:08;;;;;;;7.25;6.00;;;;;;;;;;4964349;28;20047;-83
2024/03/14 00:32:35;;;;;;;10.50;6.63;;;;;;;;;;4979783;28;20111;-83
2024/03/14 00:35:05;;;;;;;7.10;5.40;;;;;;;;;;4977840;28;20061;-82
2024/03/14 00:37:31;;;;;;;7.88;5.85;;;;;;;;;;4977110;28;20047;-83
2024/03/14 00:39:58;;;;;;;7.80;5.22;;;;;;;;;;4976988;28;20077;-82
2024/03/14 00:42:24;;;;;;;6.25;5.35;;;;;;;;;;4962871;28;20049;-81
2024/03/14 00:44:51;;;;;;;7.57;5.35;;;;;;;;;;4976040;28;20047;-81
2024/03/14 00:47:18;;;;;;;10.73;5.60;;;;;;;;;;4977783;28;20102;-81
2024/03/14 00:49:45;;;;;;;7.25;5.72;;;;;;;;;;4961682;28;20071;-81
2024/03/14 00:52:11;;;;;;;7.68;5.57;;;;;;;;;;4974968;28;20354;-81
2024/03/14 00:54:38;;;;;;;6.18;5.50;;;;;;;;;;4977837;28;20050;-82
2024/03/14 00:57:06;;;;;;;9.73;6.05;;;;;;;;;;4968234;28;20126;-82
2024/03/14 00:59:33;;;;;;;9.27;6.10;;;;;;;;;;4961352;28;20070;-83
2024/03/14 01:01:59;;;;;;;9.65;5.43;;;;;;;;;;4973270;28;20059;-82
2024/03/14 01:04:27;;;;;;;7.63;5.43;;;;;;;;;;4977416;28;20053;-82
2024/03/14 01:06:54;;;;;;;5.82;5.18;;;;;;;;;;4978826;28;20061;-82
2024/03/14 01:09:25;;;;;;;7.60;5.35;;;;;;;;;;4963681;28;20059;-82
2024/03/14 01:11:55;;;;;;;11.00;5.68;;;;;;;;;;4963961;28;20050;-82
2024/03/14 01:14:22;;;;;;;9.98;5.85;;;;;;;;;;4978930;28;20118;-82
2024/03/14 01:16:51;;;;;;;7.93;5.13;;;;;;;;;;4978364;28;20053;-82
2024/03/14 01:19:18;;;;;;;7.70;5.50;;;;;;;;;;4974756;28;20425;-85
2024/03/14 01:21:45;;;;;;;7.10;5.03;;;;;;;;;;4977264;28;20571;-84
2024/03/14 01:24:13;;;;;;;5.93;5.30;;;;;;;;;;4980998;28;20065;-84
2024/03/14 01:26:41;;;;;;;8.48;5.40;;;;;;;;;;4982658;28;20077;-84
2024/03/14 01:29:10;;;;;;;6.55;5.25;;;;;;;;;;5004150;28;20061;-85
2024/03/14 01:31:37;;;;;;;9.63;5.57;;;;;;;;;;4971176;28;20051;-84
2024/03/14 01:34:05;;;;;;;7.35;5.20;;;;;;;;;;5010118;28;20050;-84
2024/03/14 01:36:36;;;;;;;6.65;5.32;;;;;;;;;;4979456;28;20082;-81
2024/03/14 01:39:09;;;;;;;7.00;5.90;;;;;;;;;;4994544;28;20070;-81
2024/03/14 01:41:37;;;;;;;8.18;6.28;;;;;;;;;;4988792;28;20063;-82
2024/03/14 01:44:04;;;;;;;8.18;6.43;;;;;;;;;;4999954;28;20047;-82
2024/03/14 01:46:31;;;;;;;8.23;5.90;;;;;;;;;;4982240;28;20046;-82
2024/03/14 01:48:59;;;;;;;7.60;4.97;;;;;;;;;;4972669;28;20086;-81
2024/03/14 01:51:26;;;;;;;9.45;5.40;;;;;;;;;;4972451;28;20050;-81
2024/03/14 01:53:54;;;;;;;6.90;5.53;;;;;;;;;;4956992;28;20069;-81
2024/03/14 01:56:21;;;;;;;6.57;5.05;;;;;;;;;;4973288;28;20055;-81
2024/03/14 01:58:49;;;;;;;7.70;5.80;;;;;;;;;;4955462;28;20054;-82
2024/03/14 02:01:16;;;;;;;8.32;5.55;;;;;;;;;;4968117;28;20154;-81
2024/03/14 02:03:43;;;;;;;8.63;6.35;;;;;;;;;;4971298;28;20129;-81
2024/03/14 02:06:13;;;;;;;6.80;5.35;;;;;;;;;;4965708;28;20055;-82
2024/03/14 02:08:39;;;;;;;9.90;6.28;;;;;;;;;;4986094;28;20055;-81
2024/03/14 02:11:06;;;;;;;7.70;6.13;;;;;;;;;;4963347;28;20177;-81
2024/03/14 02:13:33;;;;;;;8.32;6.15;;;;;;;;;;4981333;28;20054;-81
2024/03/14 02:16:00;;;;;;;9.80;6.32;;;;;;;;;;4982764;28;20117;-82
2024/03/14 02:18:27;;;;;;;8.63;7.05;;;;;;;;;;4987210;28;20048;-81
2024/03/14 02:20:54;;;;;;;8.73;6.63;;;;;;;;;;4983506;28;20058;-81
2024/03/14 02:23:21;;;;;;;10.77;7.10;;;;;;;;;;4986671;28;20400;-81
2024/03/14 02:25:48;;;;;;;11.48;7.88;;;;;;;;;;4982676;28;20070;-82
2024/03/14 02:28:15;;;;;;;9.38;7.88;;;;;;;;;;5007529;28;20080;-82
2024/03/14 02:30:41;;;;;;;11.85;8.18;;;;;;;;;;5003851;28;20092;-82
2024/03/14 02:33:08;;;;;;;16.00;7.85;;;;;;;;;;5000279;28;20046;-82
2024/03/14 02:35:35;;;;;;;11.70;8.60;;;;;;;;;;5005833;28;20053;-81
2024/03/14 02:38:02;;;;;;;13.88;9.05;;;;;;;;;;4999875;28;20129;-82
2024/03/14 02:40:28;;;;;;;13.77;8.55;;;;;;;;;;4992333;28;20074;-82
2024/03/14 02:42:55;;;;;;;12.13;9.50;;;;;;;;;;4985856;28;20045;-82
2024/03/14 02:45:21;;;;;;;12.25;8.60;;;;;;;;;;4981691;28;20097;-82
2024/03/14 02:47:49;;;;;;;13.98;9.68;;;;;;;;;;4982851;28;20051;-82
2024/03/14 02:50:16;;;;;;;12.20;9.05;;;;;;;;;;4961775;28;20109;-82
2024/03/14 02:52:47;;;;;;;12.48;9.43;;;;;;;;;;4987280;28;20085;-81
2024/03/14 02:55:14;;;;;;;15.25;10.00;;;;;;;;;;4992521;28;20046;-82
2024/03/14 02:57:41;;;;;;;12.80;9.02;;;;;;;;;;4983974;28;20086;-82
2024/03/14 03:00:15;;;;;;;11.75;8.65;;;;;;;;;;4965510;28;20512;-81
2024/03/14 03:02:45;;;;;;;11.35;8.70;;;;;;;;;;4983229;28;20065;-81
2024/03/14 03:05:12;;;;;;;13.93;9.00;;;;;;;;;;4969551;28;20049;-80
2024/03/14 03:07:39;;;;;;;11.63;8.25;;;;;;;;;;4972135;28;20483;-80
2024/03/14 03:10:06;;;;;;;11.63;8.68;;;;;;;;;;4980982;28;20054;-80
2024/03/14 03:12:39;;;;;;;10.35;8.38;;;;;;;;;;4968471;28;20054;-80
2024/03/14 03:15:07;;;;;;;10.93;8.05;;;;;;;;;;4972625;28;20553;-80
2024/03/14 03:17:34;;;;;;;8.98;7.15;;;;;;;;;;4973235;28;20054;-79
2024/03/14 03:20:09;;;;;;;8.98;7.00;;;;;;;;;;4976969;28;20054;-81
2024/03/14 03:25:25;;;;;;;11.35;6.50;;;;;;;;;;4976049;28;20057;-82
2024/03/14 03:27:51;;;;;;;8.27;6.00;;;;;;;;;;4977941;28;20465;-82
2024/03/14 03:30:19;;;;;;;9.70;5.82;;;;;;;;;;4978257;28;20047;-79
2024/03/14 03:32:46;;;;;;;11.15;6.50;;;;;;;;;;4990735;28;20051;-78
2024/03/14 03:35:18;;;;;;;9.98;6.47;;;;;;;;;;4972579;28;20473;-78
2024/03/14 03:37:47;;;;;;;10.45;6.50;;;;;;;;;;4972626;28;20047;-78
2024/03/14 03:40:15;;;;;;;7.35;5.88;;;;;;;;;;4976017;28;20066;-78
2024/03/14 03:42:41;;;;;;;10.07;6.28;;;;;;;;;;4982216;28;20129;-79
2024/03/14 03:45:11;;;;;;;11.77;5.93;;;;;;;;;;4975646;28;20101;-79
2024/03/14 03:47:38;;;;;;;10.10;6.28;;;;;;;;;;4977490;28;20081;-79
2024/03/14 03:50:06;;;;;;;9.75;6.85;;;;;;;;;;4961227;28;20552;-79
2024/03/14 03:52:32;;;;;;;10.70;6.63;;;;;;;;;;4976575;28;20051;-79
2024/03/14 03:55:00;;;;;;;9.07;6.40;;;;;;;;;;4978244;28;20456;-80
2024/03/14 03:57:26;;;;;;;10.38;7.10;;;;;;;;;;4977778;28;20050;-82
2024/03/14 03:59:53;;;;;;;12.15;7.70;;;;;;;;;;4979556;28;20523;-81
2024/03/14 04:02:20;;;;;;;11.57;7.38;;;;;;;;;;4982064;28;20057;-80
2024/03/14 04:04:47;;;;;;;11.77;7.97;;;;;;;;;;4992342;28;20054;-80
2024/03/14 04:07:16;;;;;;;12.60;8.43;;;;;;;;;;4965479;28;20057;-80
2024/03/14 04:09:46;;;;;;;10.88;7.55;;;;;;;;;;4984768;28;20109;-79
2024/03/14 04:12:14;;;;;;;15.30;9.77;;;;;;;;;;4993311;28;20109;-80
2024/03/14 04:14:42;;;;;;;14.02;9.70;;;;;;;;;;4984748;28;20537;-80
2024/03/14 04:17:12;;;;;;;15.68;9.75;;;;;;;;;;4997062;28;20046;-80
2024/03/14 04:19:39;;;;;;;13.68;9.55;;;;;;;;;;4996418;28;20050;-81
2024/03/14 04:22:06;;;;;;;14.75;10.57;;;;;;;;;;4979248;28;20054;-81
2024/03/14 04:24:32;;;;;;;15.68;11.10;;;;;;;;;;4997064;28;20058;-81
2024/03/14 04:26:59;;;;;;;15.90;10.25;;;;;;;;;;4981031;28;20460;-78
2024/03/14 04:29:27;;;;;;;14.15;9.00;;;;;;;;;;4995367;28;20051;-79
2024/03/14 04:31:53;;;;;;;13.60;9.32;;;;;;;;;;4984723;28;20046;-81
2024/03/14 04:34:27;;;;;;;10.45;7.20;;;;;;;;;;5004219;28;20050;-80
2024/03/14 04:36:56;;;;;;;10.45;7.20;;;;;;;;;;4994447;28;20109;-78
2024/03/14 04:39:23;;;;;;;9.07;7.20;;;;;;;;;;4998817;28;20117;-83
2024/03/14 04:41:53;;;;;;;6.97;5.80;;;;;;;;;;5003709;28;20057;-83
2024/03/14 04:44:20;;;;;;;11.20;6.45;;;;;;;;;;5004583;28;20078;-83
2024/03/14 04:46:47;;;;;;;8.23;6.13;;;;;;;;;;4998796;28;20065;-85
2024/03/14 04:49:14;;;;;;;6.72;5.72;;;;;;;;;;4996694;28;20105;-83
2024/03/14 04:51:40;;;;;;;7.38;5.20;;;;;;;;;;4998909;28;20570;-82
2024/03/14 04:54:07;;;;;;;10.13;6.30;;;;;;;;;;4995255;28;20054;-80
2024/03/14 04:56:34;;;;;;;7.40;5.18;;;;;;;;;;4999485;28;20046;-80
2024/03/14 04:59:02;;;;;;;7.93;5.40;;;;;;;;;;4997783;28;20505;-80
2024/03/14 05:01:29;;;;;;;7.55;5.55;;;;;;;;;;4991243;28;20046;-80
2024/03/14 05:03:59;;;;;;;6.57;4.97;;;;;;;;;;4998897;28;20054;-81
2024/03/14 05:06:26;;;;;;;5.00;4.03;;;;;;;;;;5002156;28;20148;-82
2024/03/14 05:08:54;;;;;;;5.00;4.13;;;;;;;;;;4999453;28;20058;-81
2024/03/14 05:11:23;;;;;;;7.30;4.53;;;;;;;;;;4989475;28;20050;-81
2024/03/14 05:13:56;;;;;;;4.55;3.97;;;;;;;;;;4983979;28;20489;-81
2024/03/14 05:16:23;;;;;;;6.05;4.32;;;;;;;;;;4964122;28;20493;-82
2024/03/14 05:18:50;;;;;;;5.90;4.20;;;;;;;;;;4984259;28;20058;-80
2024/03/14 05:21:16;;;;;;;5.78;4.63;;;;;;;;;;4975852;28;20065;-80
2024/03/14 05:23:43;;;;;;;5.28;4.57;;;;;;;;;;4962774;28;20134;-81
2024/03/14 05:26:10;;;;;;;4.22;3.83;;;;;;;;;;4985060;28;20058;-82
2024/03/14 05:28:37;;;;;;;13.00;4.82;;;;;;;;;;4967997;28;20128;-81
2024/03/14 05:31:05;;;;;;;5.00;4.18;;;;;;;;;;4987242;28;20058;-81
2024/03/14 05:33:32;;;;;;;6.50;4.38;;;;;;;;;;4989771;28;20055;-82
2024/03/14 05:35:59;;;;;;;6.45;4.85;;;;;;;;;;4992064;28;20077;-81
2024/03/14 05:38:26;;;;;;;6.22;4.45;;;;;;;;;;4984471;28;20055;-81
2024/03/14 05:40:53;;;;;;;6.13;5.10;;;;;;;;;;4984488;28;20051;-82
2024/03/14 05:43:22;;;;;;;6.05;4.28;;;;;;;;;;4968158;28;20106;-82
2024/03/14 05:45:49;;;;;;;5.32;4.20;;;;;;;;;;4984591;28;20082;-82
2024/03/14 05:48:15;;;;;;;6.53;5.22;;;;;;;;;;4981783;28;20077;-82
2024/03/14 05:50:44;;;;;;;5.93;4.72;;;;;;;;;;4982178;28;20078;-82
2024/03/14 05:53:10;;;;;;;4.85;4.35;;;;;;;;;;4990944;28;20110;-82
2024/03/14 05:55:37;;;;;;;6.97;5.32;;;;;;;;;;4981530;28;20055;-81
2024/03/14 05:58:05;;;;;;;7.28;5.55;;;;;;;;;;4980076;28;20533;-82
2024/03/14 06:00:32;;;;;;;8.25;5.68;;;;;;;;;;4980210;28;20062;-81
2024/03/14 06:02:59;;;;;;;7.45;5.75;;;;;;;;;;4980542;28;20071;-81
2024/03/14 06:05:27;;;;;;;7.70;6.07;;;;;;;;;;4982648;28;20051;-81
2024/03/14 06:07:54;;;;;;;7.03;6.10;;;;;;;;;;4964268;28;20059;-81
2024/03/14 06:10:21;;;;;;;7.95;5.78;;;;;;;;;;4980667;28;20058;-81
2024/03/14 06:12:48;;;;;;;9.73;6.07;;;;;;;;;;4967287;28;20077;-81
2024/03/14 06:15:17;;;;;;;9.35;6.20;;;;;;;;;;4983527;28;20082;-81
2024/03/14 06:17:46;;;;;;;9.13;6.70;;;;;;;;;;4967693;28;20110;-82
2024/03/14 06:20:13;;;;;;;9.98;6.35;;;;;;;;;;4983859;28;20054;-81
2024/03/14 06:22:44;;;;;;;9.52;6.78;;;;;;;;;;4990495;28;20078;-81
2024/03/14 06:25:11;;;;;;;10.07;7.43;;;;;;;;;;4982957;28;20101;-81
2024/03/14 06:27:38;;;;;;;9.00;7.00;;;;;;;;;;4982751;28;20050;-82
2024/03/14 06:30:09;;;;;;;11.50;7.55;;;;;;;;;;4967099;28;20054;-81
2024/03/14 06:32:39;;;;;;;10.40;7.63;;;;;;;;;;4983048;28;20501;-81
2024/03/14 06:35:08;;;;;;;10.70;7.55;;;;;;;;;;4982203;28;20101;-81
2024/03/14 06:37:35;;;;;;;9.88;7.50;;;;;;;;;;4967522;28;20116;-81
2024/03/14 06:40:05;;;;;;;10.45;7.25;;;;;;;;;;4966868;28;20059;-81
2024/03/14 06:42:35;;;;;;;13.07;8.82;;;;;;;;;;4983216;28;20082;-81
2024/03/14 06:45:05;;;;;;;13.05;8.80;;;;;;;;;;4968353;28;20054;-82
2024/03/14 06:47:33;;;;;;;14.13;9.45;;;;;;;;;;4967141;28;20050;-81
2024/03/14 06:50:00;;;;;;;13.32;9.05;;;;;;;;;;4983887;28;20133;-82
2024/03/14 06:52:27;;;;;;;12.15;8.48;;;;;;;;;;4982874;28;20078;-81
2024/03/14 06:54:54;;;;;;;14.45;8.90;;;;;;;;;;4982994;28;20055;-81
2024/03/14 06:57:21;;;;;;;12.40;8.43;;;;;;;;;;4966679;28;20109;-81
2024/03/14 06:59:48;;;;;;;15.00;9.43;;;;;;;;;;4980775;28;20092;-81
2024/03/14 07:02:18;;;;;;;12.10;8.65;;;;;;;;;;4978972;28;20059;-81
2024/03/14 07:04:47;;;;;;;16.30;9.70;;;;;;;;;;4979924;28;20050;-81
2024/03/14 07:07:16;;;;;;;14.55;9.35;;;;;;;;;;4963758;28;20428;-81
2024/03/14 07:09:43;;;;;;;11.98;8.52;;;;;;;;;;4973725;28;20051;-81
2024/03/14 07:12:10;;;;;;;13.15;8.88;;;;;;;;;;4980280;28;20073;-80
2024/03/14 07:14:37;;;;;;;13.63;9.15;;;;;;;;;;4992852;28;20106;-81
2024/03/14 07:17:04;;;;;;;11.75;8.27;;;;;;;;;;4965418;28;20054;-81
2024/03/14 07:19:31;;;;;;;13.40;8.55;;;;;;;;;;4978015;28;20055;-81
2024/03/14 07:21:58;;;;;;;13.32;8.23;;;;;;;;;;4961789;28;20055;-81
2024/03/14 07:24:25;;;;;;;11.73;8.30;;;;;;;;;;4979547;28;20402;-81
2024/03/14 07:26:53;;;;;;;13.38;8.68;;;;;;;;;;4963149;28;20109;-81
2024/03/14 07:29:20;;;;;;;10.55;7.70;;;;;;;;;;4979431;28;20058;-81
2024/03/14 07:31:47;;;;;;;14.05;8.55;;;;;;;;;;4979297;28;20059;-81
2024/03/14 07:34:15;;;;;;;13.20;8.40;;;;;;;;;;4964018;28;20069;-81
2024/03/14 07:36:42;;;;;;;12.27;8.50;;;;;;;;;;4980300;28;20047;-81
2024/03/14 07:39:15;;;;;;;11.70;8.07;;;;;;;;;;4983386;28;20055;-81
2024/03/14 07:41:42;;;;;;;11.57;8.55;;;;;;;;;;4985809;28;20078;-81
2024/03/14 07:44:09;;;;;;;11.60;8.05;;;;;;;;;;4982110;28;20086;-81
2024/03/14 07:46:51;;;;;;;12.35;9.05;;;;;;;;;;4968045;28;20078;-81
2024/03/14 07:49:18;;;;;;;13.75;8.80;;;;;;;;;;4965935;28;20107;-81
2024/03/14 07:51:45;;;;;;;12.43;8.25;;;;;;;;;;4966238;28;20061;-81
2024/03/14 07:54:14;;;;;;;11.38;7.78;;;;;;;;;;4990680;28;20057;-81
2024/03/14 07:56:43;;;;;;;11.57;7.90;;;;;;;;;;4982596;28;20058;-81
2024/03/14 07:59:10;;;;;;;11.73;8.25;;;;;;;;;;4982492;28;20051;-81
2024/03/14 08:01:36;;;;;;;13.18;8.73;;;;;;;;;;4967718;28;20058;-81
2024/03/14 08:04:04;;;;;;;13.30;8.80;;;;;;;;;;4966759;28;20058;-81
2024/03/14 08:06:33;;;;;;;14.27;9.45;;;;;;;;;;4991558;28;20161;-81
2024/03/14 08:09:01;;;;;;;13.10;8.10;;;;;;;;;;4983646;28;20061;-81
2024/03/14 08:11:28;;;;;;;12.82;7.85;;;;;;;;;;4984508;28;20090;-81
2024/03/14 08:14:00;;;;;;;10.98;7.88;;;;;;;;;;4983001;28;20047;-81
2024/03/14 08:16:28;;;;;;;12.82;8.20;;;;;;;;;;4983477;28;20053;-81
2024/03/14 08:18:56;;;;;;;11.38;7.38;;;;;;;;;;4984419;28;20175;-81
2024/03/14 08:21:23;;;;;;;11.95;7.40;;;;;;;;;;4984210;28;20093;-81
2024/03/14 08:23:49;;;;;;;11.52;7.97;;;;;;;;;;4983172;28;20114;-81
2024/03/14 08:26:17;;;;;;;11.38;7.70;;;;;;;;;;4967577;28;20054;-81
2024/03/14 08:28:45;;;;;;;11.20;7.50;;;;;;;;;;4968736;28;20142;-81
2024/03/14 08:31:15;;;;;;;12.65;8.48;;;;;;;;;;4986647;28;20056;-81
2024/03/14 08:33:44;;;;;;;10.13;7.18;;;;;;;;;;4968907;28;20142;-81
2024/03/14 08:36:15;;;;;;;10.60;7.32;;;;;;;;;;4984006;28;20061;-82
2024/03/14 08:38:43;;;;;;;11.18;7.13;;;;;;;;;;4984312;28;20069;-81
2024/03/14 08:41:09;;;;;;;9.73;6.53;;;;;;;;;;4983813;28;20055;-82
2024/03/14 08:43:36;;;;;;;8.70;6.25;;;;;;;;;;4992059;28;20051;-82
2024/03/14 08:46:03;;;;;;;9.60;6.75;;;;;;;;;;4984593;28;20055;-82
2024/03/14 08:48:29;;;;;;;8.75;5.95;;;;;;;;;;4968907;28;20592;-82
2024/03/14 08:50:56;;;;;;;7.00;5.78;;;;;;;;;;4983752;28;20083;-82
2024/03/14 08:53:23;;;;;;;6.40;4.63;;;;;;;;;;4967883;28;20042;-81
2024/03/14 08:55:54;;;;;;;7.07;5.55;;;;;;;;;;4984052;28;20066;-82
2024/03/14 08:58:21;;;;;;;12.20;6.18;;;;;;;;;;4994216;28;20050;-82
2024/03/14 09:00:48;;;;;;;6.95;5.13;;;;;;;;;;4968467;28;20142;-81
2024/03/14 09:03:15;;;;;;;7.38;4.70;;;;;;;;;;4967609;28;20141;-82
2024/03/14 09:05:42;;;;;;;5.50;4.13;;;;;;;;;;4969446;28;20089;-82
2024/03/14 09:08:11;;;;;;;8.18;4.95;;;;;;;;;;4968030;28;20059;-81
2024/03/14 09:10:38;;;;;;;6.40;4.45;;;;;;;;;;4984494;28;20059;-81
2024/03/14 09:13:06;;;;;;;5.70;4.13;;;;;;;;;;4967750;28;20098;-82
2024/03/14 09:15:33;;;;;;;5.80;3.88;;;;;;;;;;4985111;28;20098;-82
2024/03/14 09:18:00;;;;;;;5.85;4.28;;;;;;;;;;4984586;28;20105;-81
2024/03/14 09:20:28;;;;;;;4.97;3.22;;;;;;;;;;4983318;28;20501;-81
2024/03/14 09:22:55;;;;;;;4.78;3.65;;;;;;;;;;4966858;28;20086;-81
2024/03/14 09:25:23;;;;;;;4.15;3.67;;;;;;;;;;4967949;28;20057;-82
2024/03/14 09:27:52;;;;;;;7.57;3.70;;;;;;;;;;4985313;28;20055;-82
2024/03/14 09:30:19;;;;;;;5.30;3.45;;;;;;;;;;4968538;28;20158;-81
2024/03/14 09:32:46;;;;;;;4.53;3.97;;;;;;;;;;4985436;28;20090;-82
2024/03/14 09:35:28;;;;;;;4.22;3.47;;;;;;;;;;4983943;28;20047;-81
2024/03/14 09:37:55;;;;;;;3.83;3.42;;;;;;;;;;4968917;28;20074;-81
2024/03/14 09:40:23;;;;;;;5.25;3.15;;;;;;;;;;4983116;28;20055;-81
2024/03/14 09:42:57;;;;;;;4.72;3.38;;;;;;;;;;4983258;28;20061;-81
2024/03/14 09:45:24;;;;;;;2.83;2.47;;;;;;;;;;4967416;28;20058;-81
2024/03/14 09:47:51;;;;;;;3.10;2.35;;;;;;;;;;4968730;28;20101;-81
2024/03/14 09:50:20;;;;;;;2.72;2.00;;;;;;;;;;4979253;28;20089;-81
2024/03/14 09:52:48;;;;;;;2.88;2.50;;;;;;;;;;4963111;28;20131;-80
2024/03/14 09:55:15;;;;;;;2.40;2.00;;;;;;;;;;4979703;28;20043;-81
2024/03/14 09:57:45;;;;;;;3.60;2.20;;;;;;;;;;4962371;28;20054;-81
2024/03/14 10:00:13;;;;;;;3.15;2.40;;;;;;;;;;4962591;28;20055;-81
2024/03/14 10:02:40;;;;;;;2.60;2.30;;;;;;;;;;4979207;28;20109;-81
2024/03/14 10:05:13;;;;;;;4.00;2.20;;;;;;;;;;4963306;28;20540;-81
2024/03/14 10:07:40;;;;;;;2.45;1.95;;;;;;;;;;4980276;28;20086;-81
2024/03/14 10:10:07;;;;;;;2.25;1.70;;;;;;;;;;4964984;28;20054;-81
2024/03/14 10:12:34;;;;;;;2.75;2.25;;;;;;;;;;4981518;28;20066;-81
2024/03/14 10:15:06;;;;;;;2.40;1.85;;;;;;;;;;4969677;28;20051;-81
2024/03/14 10:17:32;;;;;;;3.20;2.10;;;;;;;;;;4976886;28;20082;-82
2024/03/14 10:19:59;;;;;;;2.70;2.03;;;;;;;;;;4992996;28;20051;-81
2024/03/14 10:22:26;;;;;;;3.53;2.20;;;;;;;;;;4978857;28;20066;-82
2024/03/14 10:24:53;;;;;;;3.65;2.30;;;;;;;;;;4972803;28;20341;-81
2024/03/14 10:27:19;;;;;;;2.47;2.25;;;;;;;;;;4966370;28;20066;-81
2024/03/14 10:29:46;;;;;;;2.45;1.90;;;;;;;;;;4967620;28;20500;-81
2024/03/14 10:32:13;;;;;;;1.88;1.77;;;;;;;;;;4967276;28;20105;-81
2024/03/14 10:34:41;;;;;;;3.95;2.20;;;;;;;;;;4983756;28;20050;-81
2024/03/14 10:37:09;;;;;;;2.70;1.90;;;;;;;;;;4965794;28;20084;-81
2024/03/14 10:39:35;;;;;;;2.95;2.10;;;;;;;;;;4965622;28;20050;-81
2024/03/14 10:42:03;;;;;;;3.20;2.05;;;;;;;;;;4964369;28;20050;-81
2024/03/14 10:44:31;;;;;;;2.40;1.58;;;;;;;;;;4982141;28;20055;-81
2024/03/14 10:46:57;;;;;;;4.82;1.83;;;;;;;;;;4965944;28;20097;-81
2024/03/14 10:49:24;;;;;;;2.55;1.65;;;;;;;;;;4965652;28;20055;-81
2024/03/14 10:51:51;;;;;;;2.88;1.65;;;;;;;;;;4966021;28;20055;-81
2024/03/14 10:54:21;;;;;;;4.00;2.13;;;;;;;;;;4967880;28;20075;-82
2024/03/14 10:56:52;;;;;;;3.08;1.77;;;;;;;;;;4974571;28;20078;-81
2024/03/14 10:59:19;;;;;;;1.75;1.23;;;;;;;;;;4983138;28;20053;-82
2024/03/14 11:01:55;;;;;;;1.42;1.13;;;;;;;;;;4965733;28;20047;-81
2024/03/14 11:04:24;;;;;;;1.48;1.35;;;;;;;;;;4981648;28;20085;-81
2024/03/14 11:06:51;;;;;;;1.25;1.10;;;;;;;;;;4980973;28;20051;-81
2024/03/14 11:09:20;;;;;;;1.48;1.23;;;;;;;;;;4963017;28;20070;-80
2024/03/14 11:11:48;;;;;;;1.73;1.55;;;;;;;;;;4961562;28;20061;-81
2024/03/14 11:14:15;;;;;;;1.35;1.20;;;;;;;;;;4965279;28;20051;-81
2024/03/14 11:16:42;;;;;;;1.85;1.50;;;;;;;;;;4965414;28;20042;-81
2024/03/14 11:19:10;;;;;;;2.95;1.40;;;;;;;;;;4981209;28;20055;-81
2024/03/14 11:21:38;;;;;;;2.97;1.52;;;;;;;;;;4966150;28;20061;-82
2024/03/14 11:24:09;;;;;;;1.90;1.50;;;;;;;;;;4973663;28;20062;-81
2024/03/14 11:26:37;;;;;;;3.78;1.98;;;;;;;;;;4981738;28;20497;-81
2024/03/14 11:29:03;;;;;;;1.52;1.20;;;;;;;;;;4966238;28;20055;-81
2024/03/14 11:31:42;;;;;;;1.70;1.05;;;;;;;;;;4982217;28;20078;-82
2024/03/14 11:34:14;;;;;;;2.83;1.17;;;;;;;;;;4965499;28;20119;-81
2024/03/14 11:36:41;;;;;;;1.30;1.20;;;;;;;;;;4966952;28;20051;-81
2024/03/14 11:39:16;;;;;;;1.50;1.20;;;;;;;;;;4966351;28;20067;-81
2024/03/14 11:41:43;;;;;;;1.00;0.90;;;;;;;;;;4965962;28;20417;-81
2024/03/14 11:44:17;;;;;;;1.15;1.05;;;;;;;;;;4981222;28;20059;-81
2024/03/14 11:46:48;;;;;;;1.30;1.02;;;;;;;;;;4967179;28;20055;-82
2024/03/14 11:49:20;;;;;;;1.35;1.02;;;;;;;;;;4966524;28;20062;-82
2024/03/14 11:51:47;;;;;;;1.50;1.27;;;;;;;;;;4966582;28;20405;-81
2024/03/14 11:54:16;;;;;;;3.65;1.17;;;;;;;;;;4966009;28;20110;-82
2024/03/14 11:56:46;;;;;;;1.45;1.00;;;;;;;;;;4981713;28;20075;-82
2024/03/14 11:59:13;;;;;;;1.98;0.68;;;;;;;;;;4981413;28;20073;-81
2024/03/14 12:01:40;;;;;;;1.27;1.00;;;;;;;;;;4985001;28;20296;-82
2024/03/14 12:04:17;;;;;;;2.22;1.30;;;;;;;;;;4985736;28;20090;-81
2024/03/14 12:06:47;;;;;;;0.70;0.70;;;;;;;;;;4984968;28;20055;-81
2024/03/14 12:09:25;;;;;;;1.05;0.80;;;;;;;;;;4969153;28;20110;-81
2024/03/14 12:11:54;;;;;;;0.88;0.80;;;;;;;;;;4969980;28;20055;-81
2024/03/14 12:14:22;;;;;;;0.40;0.40;;;;;;;;;;4968351;28;20141;-81
2024/03/14 12:16:49;;;;;;;1.20;0.80;;;;;;;;;;4986203;28;20069;-82
2024/03/14 12:19:19;;;;;;;0.70;0.50;;;;;;;;;;4999452;28;20086;-81
2024/03/14 12:21:49;;;;;;;0.85;0.80;;;;;;;;;;4984683;28;20058;-81
2024/03/14 12:24:15;;;;;;;1.83;0.90;;;;;;;;;;5000887;28;20089;-81
2024/03/14 12:26:42;;;;;;;2.05;0.85;;;;;;;;;;5000385;28;20082;-81
2024/03/14 12:29:09;;;;;;;0.75;0.73;;;;;;;;;;5006561;28;20050;-81
2024/03/14 12:31:36;;;;;;;4.63;0.90;;;;;;;;;;4960620;28;20063;-82
2024/03/14 12:34:03;;;;;;;2.15;0.80;;;;;;;;;;4968359;28;20050;-81
2024/03/14 12:36:33;;;;;;;0.57;0.47;;;;;;;;;;4959958;28;20078;-81
2024/03/14 12:39:00;;;;;;;0.55;0.55;;;;;;;;;;4967436;28;20130;-81
2024/03/14 12:41:28;;;;;;;2.28;0.70;;;;;;;;;;4960936;28;20050;-81
2024/03/14 12:43:54;;;;;;;1.10;0.60;;;;;;;;;;4977595;28;20054;-81
2024/03/14 12:46:22;;;;;;;1.17;0.52;;;;;;;;;;4985727;28;20055;-82
2024/03/14 12:48:49;;;;;;;0.63;0.50;;;;;;;;;;4962967;28;20054;-82
2024/03/14 12:51:22;;;;;;;0.40;0.40;;;;;;;;;;4962410;28;20090;-81
2024/03/14 12:53:57;;;;;;;0.82;0.50;;;;;;;;;;4963862;28;20050;-81
2024/03/14 12:56:24;;;;;;;0.70;0.50;;;;;;;;;;4979227;28;20050;-82
2024/03/14 12:58:51;;;;;;;0.50;0.50;;;;;;;;;;4963784;28;20047;-81
2024/03/14 13:01:18;;;;;;;0.40;0.40;;;;;;;;;;4967754;28;20133;-81
2024/03/14 13:03:45;;;;;;;0.47;0.40;;;;;;;;;;4968684;28;20055;-81
2024/03/14 13:06:20;;;;;;;1.08;0.50;;;;;;;;;;4980311;28;20120;-82
2024/03/14 13:08:48;;;;;;;0.93;0.57;;;;;;;;;;4983042;28;20548;-81
2024/03/14 13:11:15;;;;;;;0.30;0.30;;;;;;;;;;4990544;28;20063;-82
2024/03/14 13:13:42;;;;;;;1.13;0.40;;;;;;;;;;4967748;28;20062;-81
2024/03/14 13:16:21;;;;;;;1.45;0.35;;;;;;;;;;4983329;28;20058;-81
2024/03/14 13:18:51;;;;;;;0.60;0.50;;;;;;;;;;4990789;28;20600;-81
2024/03/14 13:21:18;;;;;;;2.35;0.47;;;;;;;;;;4959767;28;20057;-81
2024/03/14 13:23:45;;;;;;;0.30;0.28;;;;;;;;;;4977870;28;20061;-81
2024/03/14 13:26:12;;;;;;;1.10;0.70;;;;;;;;;;4966707;28;20058;-81
2024/03/14 13:28:40;;;;;;;0.50;0.32;;;;;;;;;;4983475;28;20077;-81
2024/03/14 13:31:08;;;;;;;0.70;0.35;;;;;;;;;;4983279;28;20051;-82
2024/03/14 13:33:35;;;;;;;0.30;0.30;;;;;;;;;;4983076;28;20051;-81
2024/03/14 13:36:03;;;;;;;0.50;0.45;;;;;;;;;;4982061;28;20047;-81
2024/03/14 13:38:31;;;;;;;0.52;0.35;;;;;;;;;;4967161;28;20449;-81
2024/03/14 13:40:58;;;;;;;0.30;0.30;;;;;;;;;;4990374;28;20054;-82
2024/03/14 13:43:24;;;;;;;0.63;0.40;;;;;;;;;;4966531;28;20055;-82
2024/03/14 13:45:51;;;;;;;0.75;0.30;;;;;;;;;;4990926;28;20505;-82
2024/03/14 13:48:18;;;;;;;0.70;0.30;;;;;;;;;;4973397;28;20453;-82
2024/03/14 13:50:44;;;;;;;1.23;0.20;;;;;;;;;;4981856;28;20055;-82
2024/03/14 13:53:12;;;;;;;0.28;0.20;;;;;;;;;;4973639;28;20051;-81
2024/03/14 13:55:47;;;;;;;0.28;0.28;;;;;;;;;;4981714;28;20054;-81
2024/03/14 13:58:16;;;;;;;0.40;0.40;;;;;;;;;;4966924;28;20460;-82
2024/03/14 14:00:45;;;;;;;3.20;0.30;;;;;;;;;;4982569;28;20477;-82
2024/03/14 14:03:14;;;;;;;4.57;0.50;;;;;;;;;;4983214;28;20525;-82
2024/03/14 14:05:41;;;;;;;1.50;0.30;;;;;;;;;;4966673;28;20110;-82
2024/03/14 14:08:09;;;;;;;0.70;0.32;;;;;;;;;;4974512;28;20058;-82
2024/03/14 14:10:35;;;;;;;0.32;0.32;;;;;;;;;;4971357;28;20073;-81
2024/03/14 14:13:02;;;;;;;0.22;0.20;;;;;;;;;;4980493;28;20055;-82
2024/03/14 14:15:29;;;;;;;0.30;0.30;;;;;;;;;;4966760;28;20116;-82
2024/03/14 14:17:56;;;;;;;0.40;0.25;;;;;;;;;;4966414;28;20071;-81
2024/03/14 14:20:23;;;;;;;0.60;0.35;;;;;;;;;;4966580;28;20074;-82
2024/03/14 14:22:50;;;;;;;0.50;0.22;;;;;;;;;;4963715;28;20121;-81
2024/03/14 14:25:17;;;;;;;0.30;0.30;;;;;;;;;;4972772;28;20055;-82
2024/03/14 14:27:44;;;;;;;0.45;0.30;;;;;;;;;;4985928;28;20050;-82
2024/03/14 14:30:21;;;;;;;0.28;0.28;;;;;;;;;;4983522;28;21034;-81
2024/03/14 14:32:49;;;;;;;1.95;0.30;;;;;;;;;;4991062;28;20072;-81
2024/03/14 14:35:22;;;;;;;0.47;0.40;;;;;;;;;;4974935;28;20058;-82
2024/03/14 14:37:49;;;;;;;1.77;0.40;;;;;;;;;;4966631;28;20123;-82
2024/03/14 14:40:15;;;;;;;1.35;0.50;;;;;;;;;;4983482;28;20054;-81
2024/03/14 14:42:42;;;;;;;0.50;0.50;;;;;;;;;;4965882;28;20106;-82
2024/03/14 14:45:10;;;;;;;2.17;0.38;;;;;;;;;;4966439;28;20070;-81